Time;durP1;ratioP1;P1;durP2;ratioP2;P2;SDS_P1;SDS_P2;PMS_P1;PMS_P2;Temp;Humidity;BMP_temperature;BMP_pressure;BME280_temperature;BME280_humidity;BME280_pressure;Samples;Min_cycle;Max_cycle;Signal;HPM_P1;HPM_P2
2021/04/04 00:06:22;;;;;;;19.17;3.63;;;6.60;75.50;;;;;;5127207;27;21226;-43
2021/04/04 00:08:51;;;;;;;14.90;4.10;;;6.60;74.40;;;;;;5103054;28;20385;-42
2021/04/04 00:11:17;;;;;;;15.85;3.70;;;6.60;74.70;;;;;;5102196;28;20177;-42
2021/04/04 00:13:48;;;;;;;19.38;3.53;;;6.60;74.70;;;;;;5102506;28;20567;-43
2021/04/04 00:16:14;;;;;;;12.88;3.45;;;6.60;74.80;;;;;;5100997;28;20058;-42
2021/04/04 00:18:41;;;;;;;14.65;4.00;;;6.50;75.90;;;;;;5105552;28;20075;-42
2021/04/04 00:21:08;;;;;;;20.25;4.63;;;6.50;75.80;;;;;;5100211;28;20074;-42
2021/04/04 00:23:36;;;;;;;19.90;4.55;;;6.50;75.50;;;;;;5099788;28;20128;-42
2021/04/04 00:26:04;;;;;;;14.30;3.95;;;6.50;75.50;;;;;;5101826;28;20059;-42
2021/04/04 00:28:39;;;;;;;18.50;4.07;;;6.50;75.60;;;;;;5101512;28;20719;-42
2021/04/04 00:31:10;;;;;;;21.00;4.53;;;6.50;75.30;;;;;;5105287;28;20059;-44
2021/04/04 00:33:36;;;;;;;22.48;3.88;;;6.50;76.10;;;;;;5102601;28;20043;-42
2021/04/04 00:36:08;;;;;;;16.15;3.60;;;6.50;76.00;;;;;;5102453;28;20500;-42
2021/04/04 00:38:34;;;;;;;22.75;4.75;;;6.50;76.20;;;;;;5102457;28;20175;-42
2021/04/04 00:41:00;;;;;;;16.83;4.18;;;6.50;76.80;;;;;;5102162;28;20086;-43
2021/04/04 00:43:31;;;;;;;16.08;3.95;;;6.40;76.90;;;;;;5102138;28;20073;-43
2021/04/04 00:45:59;;;;;;;18.90;4.30;;;6.50;76.80;;;;;;5102994;27;20523;-43
2021/04/04 00:48:28;;;;;;;14.23;3.30;;;6.50;77.00;;;;;;5101587;28;20071;-42
2021/04/04 00:51:03;;;;;;;17.92;4.18;;;6.50;77.60;;;;;;5101140;28;20492;-42
2021/04/04 00:53:29;;;;;;;;;;;6.50;77.40;;;;;;5102206;28;20054;-42
2021/04/04 00:56:01;;;;;;;18.95;4.10;;;6.50;78.80;;;;;;5099382;28;20289;-42
2021/04/04 00:58:37;;;;;;;18.40;4.85;;;6.40;77.30;;;;;;5100901;28;20485;-43
2021/04/04 01:01:09;;;;;;;13.77;4.45;;;6.50;77.90;;;;;;5101872;28;20094;-41
2021/04/04 01:03:38;;;;;;;;;;;6.40;77.80;;;;;;5108097;28;20109;-42
2021/04/04 01:06:07;;;;;;;19.45;3.90;;;6.40;79.00;;;;;;5098578;28;19927;-43
2021/04/04 01:08:40;;;;;;;22.17;4.13;;;6.30;78.70;;;;;;5100088;28;20866;-43
2021/04/04 01:11:09;;;;;;;18.23;4.90;;;6.30;78.80;;;;;;5100905;28;20704;-42
2021/04/04 01:14:04;;;;;;;19.58;4.53;;;6.30;79.40;;;;;;5102002;28;20048;-44
2021/04/04 01:16:38;;;;;;;11.95;3.90;;;6.30;80.10;;;;;;5090762;28;20127;-43
2021/04/04 01:19:13;;;;;;;15.27;4.60;;;6.30;78.80;;;;;;5088543;28;20142;-42
2021/04/04 01:21:57;;;;;;;20.73;4.63;;;6.30;79.60;;;;;;5087631;28;20083;-43
2021/04/04 01:24:44;;;;;;;17.67;4.50;;;6.30;79.70;;;;;;5088360;28;20565;-43
2021/04/04 01:27:34;;;;;;;16.00;4.45;;;6.30;80.10;;;;;;5087825;28;20471;-43
2021/04/04 01:30:12;;;;;;;18.42;4.80;;;6.30;79.40;;;;;;5088018;28;20079;-42
2021/04/04 01:32:43;;;;;;;17.17;4.13;;;6.30;78.60;;;;;;5087299;28;21658;-41
2021/04/04 01:35:17;;;;;;;17.40;3.65;;;6.30;79.60;;;;;;5087551;28;20106;-42
2021/04/04 01:37:56;;;;;;;20.80;4.53;;;6.30;80.40;;;;;;5091987;28;20039;-42
2021/04/04 01:40:29;;;;;;;16.52;4.10;;;6.20;79.60;;;;;;5087824;28;20048;-41
2021/04/04 01:42:57;;;;;;;17.25;4.35;;;6.20;80.00;;;;;;5087528;28;20181;-43
2021/04/04 01:45:29;;;;;;;15.48;4.88;;;6.20;80.20;;;;;;5086484;28;20048;-41
2021/04/04 01:48:01;;;;;;;19.00;4.43;;;6.30;80.50;;;;;;5086370;28;20046;-43
2021/04/04 01:50:31;;;;;;;18.30;4.45;;;6.30;80.50;;;;;;5086035;28;20044;-41
2021/04/04 01:53:02;;;;;;;13.80;3.65;;;6.30;80.30;;;;;;5087239;28;20090;-43
2021/04/04 01:55:34;;;;;;;15.02;4.47;;;6.20;79.80;;;;;;5092941;28;20047;-43
2021/04/04 01:58:08;;;;;;;13.10;4.07;;;6.20;79.90;;;;;;5085443;28;20135;-42
2021/04/04 02:00:34;;;;;;;14.70;3.72;;;6.20;79.80;;;;;;5083247;28;20044;-43
2021/04/04 02:03:12;;;;;;;18.50;3.83;;;6.20;80.00;;;;;;5085985;28;20144;-43
2021/04/04 02:05:41;;;;;;;15.65;3.50;;;6.30;79.70;;;;;;5085821;28;20108;-43
2021/04/04 02:08:18;;;;;;;14.40;3.28;;;6.20;79.90;;;;;;5087344;28;20048;-44
2021/04/04 02:10:46;;;;;;;18.52;4.03;;;6.20;79.80;;;;;;5087458;28;20055;-44
2021/04/04 02:13:19;;;;;;;13.57;2.60;;;6.20;80.30;;;;;;5087367;28;20048;-44
2021/04/04 02:15:48;;;;;;;14.70;3.90;;;6.10;79.60;;;;;;5087199;28;20048;-43
2021/04/04 02:18:17;;;;;;;13.77;3.60;;;6.20;79.90;;;;;;5087035;28;20044;-43
2021/04/04 02:20:48;;;;;;;17.23;3.10;;;6.20;80.00;;;;;;5086903;28;20044;-43
2021/04/04 02:23:19;;;;;;;13.38;3.10;;;6.20;80.20;;;;;;5088509;28;20465;-42
2021/04/04 02:25:53;;;;;;;14.15;3.63;;;6.20;79.60;;;;;;5088491;28;20183;-43
2021/04/04 02:28:20;;;;;;;13.73;3.40;;;6.20;80.00;;;;;;5095227;28;20059;-43
2021/04/04 02:30:52;;;;;;;13.07;2.85;;;6.20;80.20;;;;;;5090434;28;20078;-44
2021/04/04 02:33:33;;;;;;;12.63;3.17;;;6.20;80.00;;;;;;5089327;28;20063;-42
2021/04/04 02:36:09;;;;;;;12.68;3.63;;;6.20;80.40;;;;;;5088408;28;20052;-42
2021/04/04 02:39:01;;;;;;;15.10;3.38;;;6.30;80.00;;;;;;5091086;28;20553;-41
2021/04/04 02:41:32;;;;;;;11.73;3.80;;;6.30;80.60;;;;;;5086734;28;20047;-42
2021/04/04 02:44:07;;;;;;;14.73;3.50;;;6.20;80.40;;;;;;5086735;28;20060;-42
2021/04/04 02:46:50;;;;;;;14.13;3.58;;;6.20;80.40;;;;;;5085135;28;20044;-43
2021/04/04 02:49:28;;;;;;;16.15;3.33;;;6.20;81.10;;;;;;5086584;28;20044;-42
2021/04/04 02:51:59;;;;;;;12.30;3.47;;;6.10;81.00;;;;;;5086210;28;20787;-42
2021/04/04 02:54:30;;;;;;;15.85;3.13;;;6.10;81.30;;;;;;5086208;28;20047;-42
2021/04/04 02:57:01;;;;;;;13.77;3.03;;;6.20;81.00;;;;;;5085980;28;20044;-42
2021/04/04 02:59:46;;;;;;;16.40;3.55;;;6.10;81.10;;;;;;5086555;28;20048;-41
2021/04/04 03:02:34;;;;;;;11.27;3.13;;;6.10;81.30;;;;;;5085412;28;20072;-41
2021/04/04 03:05:07;;;;;;;13.43;3.13;;;6.10;81.50;;;;;;5085162;28;20143;-43
2021/04/04 03:07:42;;;;;;;12.20;3.03;;;6.10;81.30;;;;;;5087172;28;20044;-42
2021/04/04 03:10:13;;;;;;;11.98;3.25;;;6.10;81.50;;;;;;5083219;28;20052;-42
2021/04/04 03:12:42;;;;;;;17.38;3.42;;;6.10;81.10;;;;;;5086056;28;20054;-45
2021/04/04 03:15:17;;;;;;;10.90;2.97;;;6.10;81.20;;;;;;5085629;28;20067;-42
2021/04/04 03:17:45;;;;;;;15.20;3.42;;;6.10;81.40;;;;;;5085543;28;20054;-42
2021/04/04 03:20:14;;;;;;;13.05;3.00;;;6.10;81.40;;;;;;5086074;28;20138;-42
2021/04/04 03:22:48;;;;;;;16.83;3.20;;;6.10;80.80;;;;;;5085441;28;20493;-42
2021/04/04 03:25:23;;;;;;;15.60;2.90;;;6.10;81.90;;;;;;5085539;28;20040;-43
2021/04/04 03:27:50;;;;;;;11.68;3.17;;;6.10;81.60;;;;;;5084341;28;20059;-42
2021/04/04 03:30:42;;;;;;;13.05;2.72;;;6.10;81.40;;;;;;5084645;28;20648;-43
2021/04/04 03:33:14;;;;;;;15.15;3.00;;;6.10;81.40;;;;;;5086073;28;20048;-41
2021/04/04 03:35:42;;;;;;;10.90;3.15;;;6.00;82.00;;;;;;5085743;28;20127;-43
2021/04/04 03:38:12;;;;;;;10.48;2.63;;;6.00;82.30;;;;;;5082458;28;20048;-43
2021/04/04 03:40:41;;;;;;;15.52;3.03;;;6.00;82.30;;;;;;5085150;28;20570;-43
2021/04/04 03:43:17;;;;;;;12.57;3.35;;;6.00;82.00;;;;;;5082720;28;20097;-43
2021/04/04 03:45:47;;;;;;;11.82;2.63;;;6.00;82.50;;;;;;5085662;28;20078;-42
2021/04/04 03:48:15;;;;;;;17.65;3.55;;;6.10;81.90;;;;;;5085491;28;20067;-43
2021/04/04 03:50:46;;;;;;;8.25;2.95;;;6.00;82.50;;;;;;5085142;28;20047;-43
2021/04/04 03:53:16;;;;;;;10.20;3.30;;;6.00;82.40;;;;;;5084499;28;20091;-42
2021/04/04 03:55:46;;;;;;;15.70;3.25;;;6.00;82.40;;;;;;5087953;28;20426;-42
2021/04/04 03:58:19;;;;;;;14.57;2.88;;;6.00;82.50;;;;;;5087865;28;20047;-43
2021/04/04 04:00:47;;;;;;;11.40;2.72;;;6.00;82.80;;;;;;5092567;28;20040;-43
2021/04/04 04:03:15;;;;;;;14.05;2.92;;;6.00;83.00;;;;;;5084950;28;20900;-44
2021/04/04 04:05:42;;;;;;;11.88;2.72;;;5.90;83.80;;;;;;5084741;28;20707;-42
2021/04/04 04:08:12;;;;;;;19.45;3.40;;;5.90;83.70;;;;;;5085899;28;20120;-44
2021/04/04 04:10:50;;;;;;;8.57;2.60;;;5.90;83.20;;;;;;5085012;28;20126;-42
2021/04/04 04:13:25;;;;;;;10.27;3.22;;;5.90;83.60;;;;;;5083931;28;20043;-42
2021/04/04 04:15:51;;;;;;;;;;;5.90;83.60;;;;;;5086593;28;20052;-43
2021/04/04 04:18:19;;;;;;;11.77;3.35;;;5.90;84.40;;;;;;5084805;28;19924;-42
2021/04/04 04:20:48;;;;;;;14.60;3.17;;;5.90;83.10;;;;;;5085478;28;20083;-44
2021/04/04 04:23:18;;;;;;;11.65;3.60;;;5.90;83.30;;;;;;5084939;28;20052;-44
2021/04/04 04:25:45;;;;;;;14.57;2.85;;;5.90;83.40;;;;;;5085406;28;20059;-42
2021/04/04 04:28:12;;;;;;;13.43;2.85;;;5.90;83.10;;;;;;5084628;28;20048;-42
2021/04/04 04:30:39;;;;;;;16.75;3.20;;;5.90;83.20;;;;;;5083194;28;20127;-43
2021/04/04 04:33:09;;;;;;;12.93;3.88;;;5.90;83.40;;;;;;5084076;28;20052;-42
2021/04/04 04:35:35;;;;;;;16.88;2.97;;;5.90;83.10;;;;;;5084769;28;20052;-43
2021/04/04 04:38:06;;;;;;;13.27;3.50;;;6.00;83.20;;;;;;5083565;28;20571;-43
2021/04/04 04:40:36;;;;;;;;;;;6.00;83.20;;;;;;5085833;28;20067;-43
2021/04/04 04:43:08;;;;;;;19.92;4.47;;;6.00;83.70;;;;;;5084244;28;19924;-43
2021/04/04 04:45:35;;;;;;;;;;;6.00;83.10;;;;;;5084227;28;20048;-42
2021/04/04 04:48:06;;;;;;;13.50;3.80;;;6.00;83.60;;;;;;5083982;28;19928;-42
2021/04/04 04:50:44;;;;;;;13.27;3.58;;;6.00;83.50;;;;;;5081982;28;20097;-42
2021/04/04 04:53:16;;;;;;;11.13;3.60;;;6.00;82.70;;;;;;5086489;28;20855;-42
2021/04/04 04:55:47;;;;;;;13.40;3.80;;;6.00;82.70;;;;;;5088652;28;20519;-41
2021/04/04 04:58:16;;;;;;;16.80;4.43;;;6.00;82.40;;;;;;5087781;28;20054;-44
2021/04/04 05:00:49;;;;;;;11.55;4.18;;;6.00;82.60;;;;;;5086247;28;20071;-42
2021/04/04 05:03:16;;;;;;;;;;;6.00;82.70;;;;;;5092964;28;20470;-42
2021/04/04 05:05:45;;;;;;;8.65;4.13;;;6.00;83.10;;;;;;5085310;28;19967;-44
2021/04/04 05:08:17;;;;;;;8.52;4.07;;;6.00;82.60;;;;;;5087562;28;20112;-43
2021/04/04 05:10:48;;;;;;;13.55;4.10;;;6.00;82.30;;;;;;5085798;28;20044;-44
2021/04/04 05:13:14;;;;;;;18.15;4.95;;;6.00;82.30;;;;;;5088365;28;20067;-42
2021/04/04 05:15:44;;;;;;;12.52;4.00;;;6.00;82.10;;;;;;5086751;28;20154;-43
2021/04/04 05:18:14;;;;;;;10.35;4.07;;;6.00;82.00;;;;;;5085604;28;20149;-44
2021/04/04 05:20:44;;;;;;;14.05;4.20;;;6.00;82.20;;;;;;5088449;28;20071;-41
2021/04/04 05:23:21;;;;;;;11.88;4.68;;;6.00;81.50;;;;;;5087958;28;20048;-41
2021/04/04 05:25:51;;;;;;;11.73;4.25;;;6.00;81.90;;;;;;5089097;28;20055;-41
2021/04/04 05:28:21;;;;;;;16.10;4.07;;;6.00;81.90;;;;;;5088739;28;20122;-41
2021/04/04 05:30:47;;;;;;;12.02;5.18;;;6.00;81.60;;;;;;5088294;28;20435;-40
2021/04/04 05:33:16;;;;;;;12.82;5.13;;;6.00;81.40;;;;;;5087952;28;20109;-41
2021/04/04 05:35:46;;;;;;;12.10;4.43;;;6.10;81.60;;;;;;5088672;28;20040;-41
2021/04/04 05:38:16;;;;;;;11.35;4.25;;;6.00;81.30;;;;;;5088079;28;20054;-41
2021/04/04 05:40:46;;;;;;;14.98;4.85;;;6.10;81.00;;;;;;5086957;28;20048;-42
2021/04/04 05:43:23;;;;;;;12.85;5.00;;;6.00;80.70;;;;;;5087138;28;20408;-38
2021/04/04 05:46:17;;;;;;;14.38;5.43;;;6.20;80.00;;;;;;5086296;28;20052;-38
2021/04/04 05:49:27;;;;;;;11.85;4.70;;;6.30;80.10;;;;;;5080584;28;20044;-38
2021/04/04 05:52:17;;;;;;;11.40;5.00;;;6.30;79.80;;;;;;5077849;28;20075;-38
2021/04/04 05:54:58;;;;;;;18.45;5.80;;;6.20;80.40;;;;;;5085834;28;20060;-36
2021/04/04 05:57:57;;;;;;;14.98;6.00;;;6.30;79.90;;;;;;5081402;28;20040;-36
2021/04/04 06:00:30;;;;;;;21.42;8.65;;;6.30;79.60;;;;;;5078167;28;20072;-37
2021/04/04 06:03:33;;;;;;;14.23;5.45;;;6.30;79.40;;;;;;5078297;28;20048;-37
2021/04/04 06:06:32;;;;;;;13.07;5.40;;;6.30;79.60;;;;;;5079203;28;20056;-36
2021/04/04 06:09:12;;;;;;;14.35;5.90;;;6.20;80.00;;;;;;5085508;28;20040;-38
2021/04/04 06:11:58;;;;;;;15.93;5.30;;;6.30;80.00;;;;;;5086224;28;20040;-37
2021/04/04 06:14:49;;;;;;;18.25;6.43;;;6.20;80.00;;;;;;5087017;28;20646;-37
2021/04/04 06:17:37;;;;;;;14.73;5.25;;;6.20;79.80;;;;;;5086006;28;20133;-37
2021/04/04 06:20:12;;;;;;;15.52;5.88;;;6.30;79.70;;;;;;5087837;28;20052;-36
2021/04/04 06:23:11;;;;;;;12.07;5.38;;;6.30;80.00;;;;;;5090181;28;20047;-36
2021/04/04 06:25:49;;;;;;;19.45;6.82;;;6.30;79.70;;;;;;5086373;28;20085;-36
2021/04/04 06:28:32;;;;;;;17.73;7.93;;;6.30;78.70;;;;;;5082008;28;20377;-39
2021/04/04 06:31:21;;;;;;;16.48;6.90;;;6.30;78.80;;;;;;5085379;28;20048;-40
2021/04/04 06:33:53;;;;;;;20.40;7.50;;;6.30;78.40;;;;;;5093295;28;20040;-39
2021/04/04 06:36:28;;;;;;;;;;;6.30;78.00;;;;;;5085718;28;20044;-40
2021/04/04 06:39:09;;;;;;;16.88;7.50;;;6.30;77.80;;;;;;5084438;28;19924;-39
2021/04/04 06:41:53;;;;;;;20.25;10.30;;;6.40;77.40;;;;;;5083606;28;20115;-40
2021/04/04 06:45:02;;;;;;;23.83;9.90;;;6.50;77.20;;;;;;5085742;28;20093;-40
2021/04/04 06:48:06;;;;;;;20.75;11.43;;;6.50;75.50;;;;;;5075484;28;20052;-40
2021/04/04 06:50:45;;;;;;;22.20;10.80;;;6.50;75.20;;;;;;5082583;28;20044;-42
2021/04/04 06:53:36;;;;;;;21.40;12.57;;;6.50;76.00;;;;;;5088326;28;20047;-39
2021/04/04 06:56:23;;;;;;;17.63;8.88;;;6.50;75.70;;;;;;5085405;28;20146;-41
2021/04/04 06:59:16;;;;;;;21.77;8.02;;;6.70;75.20;;;;;;5084758;28;20164;-41
2021/04/04 07:02:08;;;;;;;16.27;7.95;;;6.70;74.80;;;;;;5083225;28;20048;-39
2021/04/04 07:04:44;;;;;;;16.02;7.38;;;6.60;74.30;;;;;;5041788;28;20127;-40
2021/04/04 07:07:17;;;;;;;20.02;8.38;;;6.60;74.30;;;;;;5041683;28;20181;-39
2021/04/04 07:09:50;;;;;;;18.92;9.55;;;6.60;74.30;;;;;;5040654;28;20094;-39
2021/04/04 07:12:53;;;;;;;32.05;17.30;;;6.70;74.80;;;;;;5048706;28;20507;-38
2021/04/04 07:15:37;;;;;;;;;;;6.70;73.70;;;;;;5045274;28;20172;-39
2021/04/04 07:18:26;;;;;;;17.08;8.68;;;6.70;74.20;;;;;;5042493;28;20436;-38
2021/04/04 07:21:25;;;;;;;18.67;9.27;;;6.80;74.40;;;;;;5042729;28;20495;-39
2021/04/04 07:24:08;;;;;;;24.17;13.63;;;6.70;74.80;;;;;;5037767;28;20099;-38
2021/04/04 07:27:00;;;;;;;22.58;10.68;;;6.80;74.70;;;;;;5043700;28;20629;-39
2021/04/04 07:29:49;;;;;;;19.58;9.75;;;6.70;74.90;;;;;;5039984;28;20162;-39
2021/04/04 07:32:22;;;;;;;15.85;7.40;;;6.80;74.80;;;;;;5038724;28;20509;-38
2021/04/04 07:34:58;;;;;;;18.10;8.10;;;6.70;74.90;;;;;;5038639;28;20501;-38
2021/04/04 07:37:49;;;;;;;18.17;7.63;;;6.70;75.20;;;;;;5049829;28;20070;-39
2021/04/04 07:40:42;;;;;;;20.80;9.55;;;6.80;74.70;;;;;;5043212;28;20053;-39
2021/04/04 07:43:12;;;;;;;26.50;15.30;;;6.80;75.10;;;;;;5082198;28;20801;-39
2021/04/04 07:45:50;;;;;;;17.88;8.18;;;6.70;74.70;;;;;;5082770;28;20784;-38
2021/04/04 07:48:33;;;;;;;21.98;10.40;;;6.80;75.00;;;;;;5085984;28;20071;-38
2021/04/04 07:51:17;;;;;;;21.50;11.27;;;6.80;74.80;;;;;;5085811;28;20964;-39
2021/04/04 07:54:11;;;;;;;18.05;8.68;;;6.90;74.70;;;;;;5083437;28;20466;-39
2021/04/04 07:56:56;;;;;;;25.63;9.88;;;6.90;74.60;;;;;;5095552;28;20835;-38
2021/04/04 07:59:28;;;;;;;19.80;7.72;;;6.80;74.30;;;;;;5080425;28;20071;-37
2021/04/04 08:02:09;;;;;;;19.73;8.32;;;6.80;74.70;;;;;;5082415;28;20510;-38
2021/04/04 08:04:53;;;;;;;19.08;8.48;;;6.80;74.50;;;;;;5073541;28;20044;-38
2021/04/04 08:07:21;;;;;;;19.27;8.50;;;6.80;75.00;;;;;;5083114;28;20048;-38
2021/04/04 08:10:12;;;;;;;13.68;6.95;;;6.90;74.70;;;;;;5083541;28;20052;-38
2021/04/04 08:12:44;;;;;;;18.80;8.40;;;6.90;74.20;;;;;;5077268;28;20048;-38
2021/04/04 08:15:26;;;;;;;17.80;8.38;;;6.90;74.60;;;;;;5067105;28;20048;-38
2021/04/04 08:17:51;;;;;;;21.75;9.32;;;7.00;74.40;;;;;;5071132;28;20527;-38
2021/04/04 08:20:25;;;;;;;18.42;8.57;;;6.90;74.40;;;;;;5079785;28;20052;-38
2021/04/04 08:23:14;;;;;;;22.13;9.40;;;6.90;74.60;;;;;;5106531;27;20040;-38
2021/04/04 08:26:04;;;;;;;20.48;9.20;;;6.90;74.80;;;;;;5079563;28;20393;-38
2021/04/04 08:28:59;;;;;;;21.70;9.57;;;7.00;74.80;;;;;;5069488;28;20056;-38
2021/04/04 08:31:38;;;;;;;16.45;8.75;;;7.00;74.70;;;;;;5074286;28;20044;-38
2021/04/04 08:34:24;;;;;;;16.80;8.18;;;7.10;74.80;;;;;;5085697;28;20101;-38
2021/04/04 08:36:57;;;;;;;17.80;8.55;;;7.20;74.90;;;;;;5086082;28;20583;-38
2021/04/04 08:39:31;;;;;;;21.83;9.40;;;7.30;74.30;;;;;;5087240;28;20093;-38
2021/04/04 08:42:02;;;;;;;21.23;10.02;;;7.40;74.10;;;;;;5082784;28;20065;-38
2021/04/04 08:44:50;;;;;;;17.85;8.77;;;7.40;73.90;;;;;;5095259;28;20044;-38
2021/04/04 08:47:32;;;;;;;17.45;9.18;;;7.60;73.80;;;;;;5078943;28;20570;-39
2021/04/04 08:50:11;;;;;;;17.88;9.38;;;7.60;73.20;;;;;;5089101;28;20051;-38
2021/04/04 08:53:11;;;;;;;20.05;9.65;;;7.50;73.00;;;;;;5087947;28;20148;-39
2021/04/04 08:55:42;;;;;;;15.93;8.43;;;7.70;73.20;;;;;;5070803;28;20045;-38
2021/04/04 08:58:19;;;;;;;17.47;8.53;;;7.80;72.60;;;;;;5078538;28;20159;-39
2021/04/04 09:00:52;;;;;;;17.30;8.38;;;7.80;72.20;;;;;;5087953;28;20059;-38
2021/04/04 09:03:23;;;;;;;18.17;9.50;;;7.80;72.30;;;;;;5069632;28;20622;-38
2021/04/04 09:06:05;;;;;;;18.20;8.68;;;7.80;72.50;;;;;;5069297;28;20155;-39
2021/04/04 09:08:36;;;;;;;17.10;9.27;;;7.90;71.90;;;;;;5080986;28;20143;-38
2021/04/04 09:11:06;;;;;;;19.75;8.88;;;7.90;71.90;;;;;;5085720;28;20075;-39
2021/04/04 09:13:40;;;;;;;18.70;9.13;;;8.00;72.10;;;;;;5071823;28;20048;-38
2021/04/04 09:16:13;;;;;;;18.55;9.70;;;8.00;71.10;;;;;;5073033;28;20051;-39
2021/04/04 09:18:50;;;;;;;17.52;8.30;;;8.10;71.20;;;;;;5079641;28;20044;-38
2021/04/04 09:21:23;;;;;;;17.77;9.07;;;8.30;71.90;;;;;;5088760;28;20055;-38
2021/04/04 09:23:53;;;;;;;20.17;8.93;;;8.30;71.10;;;;;;5076956;28;20087;-38
2021/04/04 09:26:24;;;;;;;16.92;9.48;;;8.40;70.90;;;;;;5073753;28;20040;-39
2021/04/04 09:28:56;;;;;;;17.02;9.48;;;8.20;70.60;;;;;;5068764;28;20055;-39
2021/04/04 09:31:29;;;;;;;21.33;9.68;;;8.20;70.80;;;;;;5073147;28;20063;-38
2021/04/04 09:34:12;;;;;;;20.80;10.93;;;8.30;71.20;;;;;;5083102;28;20055;-38
2021/04/04 09:36:49;;;;;;;17.52;8.93;;;8.20;71.10;;;;;;5079558;28;20105;-38
2021/04/04 09:39:26;;;;;;;19.52;9.77;;;8.30;71.40;;;;;;5083138;28;20047;-38
2021/04/04 09:41:57;;;;;;;21.38;9.55;;;8.30;70.90;;;;;;5072015;28;20454;-39
2021/04/04 09:44:36;;;;;;;21.45;9.35;;;8.40;71.60;;;;;;5078679;28;20159;-38
2021/04/04 09:47:04;;;;;;;19.10;8.88;;;8.40;70.90;;;;;;5085432;28;20067;-38
2021/04/04 09:49:49;;;;;;;19.73;10.00;;;8.40;70.50;;;;;;5078731;28;20052;-38
2021/04/04 09:52:27;;;;;;;20.52;8.95;;;8.50;70.20;;;;;;5070096;28;20055;-38
2021/04/04 09:55:09;;;;;;;19.30;8.73;;;8.40;70.40;;;;;;5067748;28;20059;-38
2021/04/04 09:57:43;;;;;;;17.77;8.57;;;8.40;70.60;;;;;;5079573;28;20061;-38
2021/04/04 10:00:15;;;;;;;55.80;36.72;;;8.50;70.70;;;;;;5068528;28;20055;-37
2021/04/04 10:02:43;;;;;;;20.63;9.77;;;8.80;71.20;;;;;;5080948;28;20045;-37
2021/04/04 10:05:23;;;;;;;21.98;11.82;;;8.80;69.70;;;;;;5067140;28;20079;-37
2021/04/04 10:07:49;;;;;;;21.85;13.93;;;8.90;70.00;;;;;;5070483;28;20047;-37
2021/04/04 10:10:33;;;;;;;14.73;6.68;;;8.80;69.60;;;;;;5075331;28;20056;-37
2021/04/04 10:13:05;;;;;;;13.60;6.07;;;8.70;69.60;;;;;;5075045;28;20064;-37
2021/04/04 10:15:48;;;;;;;17.20;7.43;;;8.70;69.40;;;;;;5085797;28;20047;-36
2021/04/04 10:18:16;;;;;;;15.23;7.32;;;8.70;69.80;;;;;;5078205;28;20047;-37
2021/04/04 10:20:57;;;;;;;12.05;5.70;;;8.80;69.90;;;;;;5089037;28;20040;-38
2021/04/04 10:23:34;;;;;;;13.53;5.33;;;8.90;69.60;;;;;;5079379;28;20044;-37
2021/04/04 10:26:08;;;;;;;21.25;6.20;;;9.10;69.20;;;;;;5091025;28;20080;-40
2021/04/04 10:29:02;;;;;;;10.68;4.75;;;9.20;68.20;;;;;;5084917;28;20143;-40
2021/04/04 10:31:49;;;;;;;14.80;6.25;;;8.90;68.10;;;;;;5086419;28;20052;-39
2021/04/04 10:34:18;;;;;;;29.58;17.50;;;8.80;68.40;;;;;;5093811;28;20052;-40
2021/04/04 10:37:00;;;;;;;25.70;11.05;;;8.80;69.40;;;;;;5088925;28;20135;-39
2021/04/04 10:39:32;;;;;;;11.00;5.07;;;8.80;69.70;;;;;;5078117;28;20121;-39
2021/04/04 10:42:17;;;;;;;15.85;6.45;;;8.90;69.50;;;;;;5084258;28;20074;-39
2021/04/04 10:44:48;;;;;;;16.42;7.32;;;8.90;69.70;;;;;;5074245;28;20176;-39
2021/04/04 10:47:21;;;;;;;18.50;6.78;;;9.00;69.60;;;;;;5087215;28;20518;-39
2021/04/04 10:49:59;;;;;;;14.48;6.40;;;8.90;69.70;;;;;;5087421;28;20158;-39
2021/04/04 10:52:25;;;;;;;19.67;6.40;;;9.00;70.30;;;;;;5084504;28;20052;-39
2021/04/04 10:54:52;;;;;;;15.63;6.20;;;8.90;69.60;;;;;;5086181;28;20055;-39
2021/04/04 10:57:27;;;;;;;17.73;5.93;;;8.80;69.90;;;;;;5081746;28;20514;-39
2021/04/04 11:00:07;;;;;;;16.08;7.47;;;9.00;70.20;;;;;;5081796;28;20209;-40
2021/04/04 11:02:38;;;;;;;12.85;5.78;;;9.10;70.00;;;;;;5076682;28;20048;-40
2021/04/04 11:05:10;;;;;;;16.48;6.68;;;9.20;69.70;;;;;;5073350;28;20746;-40
2021/04/04 11:07:43;;;;;;;14.25;6.13;;;9.30;69.10;;;;;;5073967;28;20048;-39
2021/04/04 11:10:12;;;;;;;16.27;6.28;;;9.30;69.30;;;;;;5076000;28;20047;-39
2021/04/04 11:12:44;;;;;;;13.43;5.43;;;9.40;68.80;;;;;;5069561;28;20055;-40
2021/04/04 11:15:17;;;;;;;12.95;6.20;;;9.50;68.80;;;;;;5080629;28;20101;-40
2021/04/04 11:17:46;;;;;;;11.93;5.47;;;9.20;67.50;;;;;;5083674;28;20036;-38
2021/04/04 11:20:17;;;;;;;16.02;5.57;;;9.30;68.50;;;;;;5076321;28;20105;-39
2021/04/04 11:22:49;;;;;;;12.88;5.75;;;9.20;68.60;;;;;;5082278;28;20849;-39
2021/04/04 11:25:17;;;;;;;;;;;9.20;69.10;;;;;;5076261;28;20087;-39
2021/04/04 11:27:50;;;;;;;13.32;5.60;;;9.20;68.90;;;;;;5073005;28;19977;-40
2021/04/04 11:30:36;;;;;;;11.30;4.88;;;9.40;70.10;;;;;;5078893;28;20049;-39
2021/04/04 11:33:16;;;;;;;11.60;5.57;;;9.50;68.60;;;;;;5082932;28;20052;-39
2021/04/04 11:36:02;;;;;;;14.05;5.75;;;9.60;67.70;;;;;;5075332;28;20504;-39
2021/04/04 11:38:31;;;;;;;14.82;6.40;;;9.60;68.00;;;;;;5073909;28;20053;-39
2021/04/04 11:41:27;;;;;;;16.80;6.82;;;9.40;68.30;;;;;;5074674;28;20059;-39
2021/04/04 11:44:21;;;;;;;16.27;5.68;;;9.40;68.40;;;;;;5068799;28;20052;-39
2021/04/04 11:46:53;;;;;;;11.02;5.07;;;9.30;67.90;;;;;;5073799;28;20051;-39
2021/04/04 11:49:35;;;;;;;13.50;6.40;;;9.40;68.40;;;;;;5082466;28;20052;-39
2021/04/04 11:52:21;;;;;;;18.52;5.95;;;9.40;67.70;;;;;;5077692;28;20093;-39
2021/04/04 11:54:50;;;;;;;13.48;6.15;;;9.40;68.40;;;;;;5071658;28;20052;-39
2021/04/04 11:57:25;;;;;;;17.45;5.85;;;9.40;68.00;;;;;;5073631;28;20074;-40
2021/04/04 12:00:21;;;;;;;17.88;6.05;;;9.50;67.40;;;;;;5071977;28;20040;-40
2021/04/04 12:03:03;;;;;;;11.30;5.40;;;9.60;67.40;;;;;;5073951;28;20492;-40
2021/04/04 12:05:39;;;;;;;13.85;5.20;;;9.60;66.90;;;;;;5071843;28;20782;-40
2021/04/04 12:08:12;;;;;;;14.07;5.80;;;9.60;67.10;;;;;;5076847;28;20177;-40
2021/04/04 12:10:42;;;;;;;13.00;5.43;;;9.60;67.30;;;;;;5084140;28;20052;-40
2021/04/04 12:13:18;;;;;;;41.00;26.02;;;9.50;67.70;;;;;;5083394;28;20496;-39
2021/04/04 12:15:44;;;;;;;13.43;6.25;;;9.70;67.60;;;;;;5085371;28;20044;-39
2021/04/04 12:18:15;;;;;;;19.17;9.48;;;9.80;67.50;;;;;;5067775;28;20052;-40
2021/04/04 12:20:41;;;;;;;19.35;6.43;;;9.70;66.50;;;;;;5077772;28;20117;-40
2021/04/04 12:23:15;;;;;;;14.27;4.63;;;9.70;66.80;;;;;;5071286;28;20090;-40
2021/04/04 12:25:41;;;;;;;11.10;4.20;;;9.80;66.50;;;;;;5080633;28;20040;-39
2021/04/04 12:28:09;;;;;;;18.75;6.65;;;9.80;66.60;;;;;;5079634;28;20075;-40
2021/04/04 12:30:41;;;;;;;15.93;4.80;;;9.80;66.80;;;;;;5074008;28;20052;-39
2021/04/04 12:33:23;;;;;;;15.48;5.90;;;9.80;67.00;;;;;;5084119;28;20120;-40
2021/04/04 12:35:55;;;;;;;14.95;5.25;;;9.90;67.40;;;;;;5073067;28;20255;-40
2021/04/04 12:38:32;;;;;;;13.18;5.88;;;9.80;67.10;;;;;;5070359;28;20082;-39
2021/04/04 12:41:00;;;;;;;13.95;4.60;;;10.00;67.00;;;;;;5071799;28;20048;-40
2021/04/04 12:43:38;;;;;;;15.85;4.35;;;9.90;66.60;;;;;;5080908;28;20136;-40
2021/04/04 12:46:11;;;;;;;14.25;4.32;;;9.80;67.30;;;;;;5074566;28;20064;-39
2021/04/04 12:48:47;;;;;;;12.88;4.15;;;9.80;66.50;;;;;;5080398;28;20240;-39
2021/04/04 12:51:17;;;;;;;10.43;3.92;;;9.70;66.40;;;;;;5074847;28;20075;-39
2021/04/04 12:53:47;;;;;;;14.25;4.15;;;9.90;66.20;;;;;;5074022;28;20052;-39
2021/04/04 12:56:35;;;;;;;11.30;3.58;;;9.90;65.90;;;;;;5071914;28;20047;-39
2021/04/04 12:59:04;;;;;;;12.65;4.18;;;9.90;65.30;;;;;;5079482;28;20143;-39
2021/04/04 13:01:33;;;;;;;12.25;3.45;;;10.10;65.90;;;;;;5074805;28;20044;-40
2021/04/04 13:04:02;;;;;;;20.93;8.93;;;10.20;65.60;;;;;;5086309;28;20052;-41
2021/04/04 13:06:38;;;;;;;21.10;11.90;;;10.20;65.40;;;;;;5078903;28;20048;-42
2021/04/04 13:09:04;;;;;;;16.52;5.55;;;10.00;65.90;;;;;;5081884;28;20051;-41
2021/04/04 13:11:30;;;;;;;14.13;4.68;;;9.90;67.40;;;;;;5074319;28;20044;-40
2021/04/04 13:13:56;;;;;;;13.30;5.32;;;9.90;67.30;;;;;;5084457;28;20389;-40
2021/04/04 13:16:26;;;;;;;14.82;5.00;;;9.70;67.00;;;;;;5077956;28;20061;-39
2021/04/04 13:18:52;;;;;;;23.50;9.93;;;9.70;67.70;;;;;;5075789;28;20116;-39
2021/04/04 13:21:26;;;;;;;17.92;5.90;;;9.70;68.00;;;;;;5078248;28;20476;-39
2021/04/04 13:23:57;;;;;;;15.60;6.25;;;9.70;68.10;;;;;;5079402;28;20044;-39
2021/04/04 13:26:31;;;;;;;14.50;5.85;;;9.80;67.80;;;;;;5076752;28;20052;-38
2021/04/04 13:29:04;;;;;;;15.05;5.25;;;9.90;67.80;;;;;;5082049;28;20420;-38
2021/04/04 13:31:31;;;;;;;19.70;6.00;;;10.00;67.40;;;;;;5080166;28;20485;-39
2021/04/04 13:34:17;;;;;;;14.35;5.80;;;10.10;66.70;;;;;;5088718;28;20047;-39
2021/04/04 13:36:48;;;;;;;16.63;5.47;;;10.30;66.30;;;;;;5082497;28;20078;-38